createdAt,value
2018-02-10T00:00:49.934Z,0
2018-02-10T00:01:49.649Z,0
2018-02-10T00:02:49.136Z,0
2018-02-10T00:03:51.290Z,0
2018-02-10T00:04:49.619Z,0
2018-02-10T00:05:49.369Z,0
2018-02-10T00:06:49.603Z,0
2018-02-10T00:07:49.594Z,0
2018-02-10T00:08:49.583Z,0
2018-02-10T00:09:49.583Z,0
2018-02-10T00:10:49.324Z,0
2018-02-10T00:11:49.592Z,0
2018-02-10T00:12:49.574Z,0
2018-02-10T00:13:49.286Z,0
2018-02-10T00:14:49.531Z,0
2018-02-10T00:15:49.763Z,0
2018-02-10T00:16:49.753Z,0
2018-02-10T00:17:49.507Z,0
2018-02-10T00:18:48.990Z,0
2018-02-10T00:19:49.228Z,0
2018-02-10T00:20:49.726Z,0
2018-02-10T00:21:49.705Z,0
2018-02-10T00:22:49.200Z,0
2018-02-10T00:23:49.192Z,0
2018-02-10T00:24:48.932Z,0
2018-02-10T00:25:49.200Z,0
2018-02-10T00:26:49.169Z,0
2018-02-10T00:27:49.408Z,0
2018-02-10T00:28:49.142Z,0
2018-02-10T00:29:49.383Z,0
2018-02-10T00:30:49.132Z,0
2018-02-10T00:31:49.740Z,0
2018-02-10T00:32:49.360Z,0
2018-02-10T00:33:49.092Z,0
2018-02-10T00:34:52.799Z,0
2018-02-10T00:35:49.073Z,0
2018-02-10T00:36:49.346Z,0
2018-02-10T00:37:49.317Z,0
2018-02-10T00:38:49.311Z,0
2018-02-10T00:39:49.052Z,0
2018-02-10T00:40:49.290Z,0
2018-02-10T00:41:49.271Z,0
2018-02-10T00:42:49.266Z,0
2018-02-10T00:43:49.318Z,0
2018-02-10T00:44:49.494Z,0
2018-02-10T00:45:49.246Z,0
2018-02-10T00:46:48.966Z,0
2018-02-10T00:47:48.965Z,0
2018-02-10T00:48:49.203Z,0
2018-02-10T00:49:49.203Z,0
2018-02-10T00:50:49.189Z,0
2018-02-10T00:51:49.171Z,0
2018-02-10T00:52:49.416Z,0
2018-02-10T00:53:48.662Z,0
2018-02-10T00:54:49.274Z,0
2018-02-10T00:55:48.723Z,0
2018-02-10T00:56:49.148Z,0
2018-02-10T00:57:49.144Z,0
2018-02-10T00:58:49.106Z,0
2018-02-10T00:59:48.615Z,0
2018-02-10T01:00:49.105Z,0
2018-02-10T01:01:48.591Z,0
2018-02-10T01:02:48.825Z,0
2018-02-10T01:03:49.200Z,0
2018-02-10T01:04:49.912Z,0
2018-02-10T01:05:48.964Z,0
2018-02-10T01:06:49.191Z,0
2018-02-10T01:07:49.368Z,0
2018-02-10T01:08:49.026Z,0
2018-02-10T01:09:49.011Z,0
2018-02-10T01:10:48.751Z,0
2018-02-10T01:11:48.750Z,0
2018-02-10T01:12:48.984Z,0
2018-02-10T01:13:48.474Z,0
2018-02-10T01:14:48.964Z,0
2018-02-10T01:15:49.201Z,0
2018-02-10T01:16:48.696Z,0
2018-02-10T01:17:48.679Z,0
2018-02-10T01:18:48.919Z,0
2018-02-10T01:19:48.907Z,0
2018-02-10T01:20:48.908Z,0
2018-02-10T01:21:49.154Z,0
2018-02-10T01:22:49.143Z,0
2018-02-10T01:23:48.373Z,0
2018-02-10T01:24:48.630Z,0
2018-02-10T01:25:48.612Z,0
2018-02-10T01:26:49.108Z,0
2018-02-10T01:27:48.594Z,0
2018-02-10T01:28:48.583Z,0
2018-02-10T01:29:48.817Z,0
2018-02-10T01:30:48.846Z,0
2018-02-10T01:31:48.817Z,0
2018-02-10T01:32:48.557Z,0
2018-02-10T01:33:48.777Z,0
2018-02-10T01:34:51.187Z,0
2018-02-10T01:35:48.763Z,0
2018-02-10T01:36:48.528Z,0
2018-02-10T01:37:48.499Z,0
2018-02-10T01:38:48.749Z,0
2018-02-10T01:39:48.798Z,0
2018-02-10T01:40:48.717Z,0
2018-02-10T01:41:48.717Z,0
2018-02-10T01:42:48.447Z,0
2018-02-10T01:43:48.701Z,0
2018-02-10T01:44:48.681Z,0
2018-02-10T01:45:48.182Z,0
2018-02-10T01:46:48.409Z,0
2018-02-10T01:47:48.397Z,0
2018-02-10T01:48:48.882Z,0
2018-02-10T01:49:48.880Z,0
2018-02-10T01:50:48.363Z,0
2018-02-10T01:51:48.354Z,0
2018-02-10T01:52:48.402Z,0
2018-02-10T01:53:48.608Z,0
2018-02-10T01:54:48.336Z,0
2018-02-10T01:55:48.404Z,0
2018-02-10T01:56:48.565Z,0
2018-02-10T01:57:48.563Z,0
2018-02-10T01:58:48.554Z,0
2018-02-10T01:59:48.527Z,0
2018-02-10T02:00:48.318Z,0
2018-02-10T02:01:48.525Z,0
2018-02-10T02:02:48.244Z,0
2018-02-10T02:03:48.518Z,0
2018-02-10T02:04:48.487Z,0
2018-02-10T02:05:48.229Z,0
2018-02-10T02:06:48.467Z,0
2018-02-10T02:07:48.717Z,0
2018-02-10T02:08:48.713Z,0
2018-02-10T02:09:48.690Z,0
2018-02-10T02:10:49.234Z,0
2018-02-10T02:11:48.164Z,0
2018-02-10T02:12:48.404Z,0
2018-02-10T02:13:48.400Z,0
2018-02-10T02:14:47.886Z,0
2018-02-10T02:15:48.379Z,0
2018-02-10T02:16:48.365Z,0
2018-02-10T02:17:48.111Z,0
2018-02-10T02:18:48.623Z,0
2018-02-10T02:19:48.394Z,0
2018-02-10T02:20:48.332Z,0
2018-02-10T02:21:48.322Z,0
2018-02-10T02:22:48.318Z,0
2018-02-10T02:23:48.304Z,0
2018-02-10T02:24:48.564Z,0
2018-02-10T02:25:48.286Z,0
2018-02-10T02:26:48.021Z,0
2018-02-10T02:27:48.263Z,0
2018-02-10T02:28:47.999Z,0
2018-02-10T02:29:47.998Z,0
2018-02-10T02:30:47.984Z,0
2018-02-10T02:31:48.546Z,0
2018-02-10T02:32:48.473Z,0
2018-02-10T02:33:48.215Z,0
2018-02-10T02:34:47.947Z,0
2018-02-10T02:35:49.732Z,0
2018-02-10T02:36:48.182Z,0
2018-02-10T02:37:47.923Z,0
2018-02-10T02:38:48.511Z,0
2018-02-10T02:39:48.156Z,0
2018-02-10T02:40:48.171Z,0
2018-02-10T02:41:48.138Z,0
2018-02-10T02:42:48.130Z,0
2018-02-10T02:43:48.128Z,0
2018-02-10T02:44:48.355Z,0
2018-02-10T02:45:48.118Z,0
2018-02-10T02:46:48.104Z,0
2018-02-10T02:47:48.084Z,0
2018-02-10T02:48:48.115Z,0
2018-02-10T02:49:48.318Z,0
2018-02-10T02:50:47.800Z,0
2018-02-10T02:51:48.301Z,0
2018-02-10T02:52:48.286Z,0
2018-02-10T02:53:48.020Z,0
2018-02-10T02:54:48.014Z,0
2018-02-10T02:55:48.007Z,0
2018-02-10T02:56:47.737Z,0
2018-02-10T02:57:48.230Z,0
2018-02-10T02:58:48.238Z,0
2018-02-10T02:59:47.716Z,0
2018-02-10T03:00:48.013Z,0
2018-02-10T03:01:48.214Z,0
2018-02-10T03:02:47.695Z,0
2018-02-10T03:03:47.680Z,0
2018-02-10T03:04:47.671Z,0
2018-02-10T03:05:47.958Z,0
2018-02-10T03:06:48.162Z,0
2018-02-10T03:07:47.941Z,0
2018-02-10T03:08:48.135Z,0
2018-02-10T03:09:48.122Z,0
2018-02-10T03:10:47.611Z,0
2018-02-10T03:11:47.856Z,0
2018-02-10T03:12:47.595Z,0
2018-02-10T03:13:47.838Z,0
2018-02-10T03:14:47.646Z,0
2018-02-10T03:15:47.563Z,0
2018-02-10T03:16:47.809Z,0
2018-02-10T03:17:48.054Z,0
2018-02-10T03:18:47.796Z,0
2018-02-10T03:19:47.779Z,0
2018-02-10T03:20:47.778Z,0
2018-02-10T03:21:48.013Z,0
2018-02-10T03:22:47.514Z,0
2018-02-10T03:23:47.495Z,0
2018-02-10T03:24:47.478Z,0
2018-02-10T03:25:47.745Z,0
2018-02-10T03:26:47.709Z,0
2018-02-10T03:27:47.699Z,0
2018-02-10T03:28:47.706Z,0
2018-02-10T03:29:47.940Z,0
2018-02-10T03:30:47.438Z,0
2018-02-10T03:31:47.667Z,0
2018-02-10T03:32:47.153Z,0
2018-02-10T03:33:47.645Z,0
2018-02-10T03:34:47.894Z,0
2018-02-10T03:35:47.631Z,0
2018-02-10T03:36:47.657Z,0
2018-02-10T03:37:47.359Z,0
2018-02-10T03:38:47.601Z,0
2018-02-10T03:39:47.352Z,0
2018-02-10T03:40:47.354Z,0
2018-02-10T03:41:47.330Z,0
2018-02-10T03:42:47.317Z,0
2018-02-10T03:43:47.296Z,0
2018-02-10T03:44:47.300Z,0
2018-02-10T03:45:47.293Z,0
2018-02-10T03:46:48.325Z,0
2018-02-10T03:47:47.773Z,0
2018-02-10T03:48:47.291Z,0
2018-02-10T03:49:46.997Z,0
2018-02-10T03:50:47.245Z,0
2018-02-10T03:51:48.534Z,0
2018-02-10T03:52:47.485Z,0
2018-02-10T03:53:47.708Z,0
2018-02-10T03:54:47.456Z,0
2018-02-10T03:55:47.442Z,0
2018-02-10T03:56:46.935Z,0
2018-02-10T03:57:47.424Z,0
2018-02-10T03:58:47.180Z,0
2018-02-10T03:59:47.657Z,0
2018-02-10T04:00:47.399Z,0
2018-02-10T04:01:47.385Z,0
2018-02-10T04:02:47.377Z,0
2018-02-10T04:03:47.112Z,0
2018-02-10T04:04:47.366Z,0
2018-02-10T04:05:47.412Z,0
2018-02-10T04:06:49.195Z,0
2018-02-10T04:07:47.338Z,0
2018-02-10T04:08:47.572Z,0
2018-02-10T04:09:47.313Z,0
2018-02-10T04:10:46.800Z,0
2018-02-10T04:11:47.043Z,0
2018-02-10T04:12:47.282Z,0
2018-02-10T04:13:47.019Z,0
2018-02-10T04:14:47.262Z,0
2018-02-10T04:15:47.506Z,0
2018-02-10T04:16:47.258Z,0
2018-02-10T04:17:47.236Z,0
2018-02-10T04:18:47.226Z,0
2018-02-10T04:19:47.213Z,0
2018-02-10T04:20:46.713Z,0
2018-02-10T04:21:47.210Z,0
2018-02-10T04:22:47.186Z,0
2018-02-10T04:23:47.445Z,0
2018-02-10T04:24:47.169Z,0
2018-02-10T04:25:46.663Z,0
2018-02-10T04:26:47.156Z,0
2018-02-10T04:27:46.891Z,0
2018-02-10T04:28:47.130Z,0
2018-02-10T04:29:46.628Z,0
2018-02-10T04:30:47.170Z,0
2018-02-10T04:31:47.110Z,0
2018-02-10T04:32:47.097Z,0
2018-02-10T04:33:46.591Z,0
2018-02-10T04:34:47.331Z,0
2018-02-10T04:35:47.069Z,0
2018-02-10T04:36:48.355Z,0
2018-02-10T04:37:47.066Z,0
2018-02-10T04:38:46.788Z,0
2018-02-10T04:39:47.276Z,0
2018-02-10T04:40:47.089Z,0
2018-02-10T04:41:47.007Z,0
2018-02-10T04:42:47.252Z,0
2018-02-10T04:43:46.745Z,0
2018-02-10T04:44:46.726Z,0
2018-02-10T04:45:47.228Z,0
2018-02-10T04:46:46.455Z,0
2018-02-10T04:47:46.956Z,0
2018-02-10T04:48:46.953Z,0
2018-02-10T04:49:46.437Z,0
2018-02-10T04:50:46.418Z,0
2018-02-10T04:51:46.926Z,0
2018-02-10T04:52:46.650Z,0
2018-02-10T04:53:46.655Z,0
2018-02-10T04:54:46.634Z,0
2018-02-10T04:55:46.881Z,0
2018-02-10T04:56:46.376Z,0
2018-02-10T04:57:46.863Z,0
2018-02-10T04:58:47.117Z,0
2018-02-10T04:59:46.853Z,0
2018-02-10T05:00:46.832Z,0
2018-02-10T05:01:47.077Z,0
2018-02-10T05:02:47.072Z,0
2018-02-10T05:03:46.800Z,0
2018-02-10T05:04:46.548Z,0
2018-02-10T05:05:46.561Z,0
2018-02-10T05:06:46.769Z,0
2018-02-10T05:07:46.259Z,0
2018-02-10T05:08:46.761Z,0
2018-02-10T05:09:46.743Z,0
2018-02-10T05:10:46.736Z,0
2018-02-10T05:11:46.725Z,0
2018-02-10T05:12:46.462Z,0
2018-02-10T05:13:46.702Z,0
2018-02-10T05:14:46.699Z,0
2018-02-10T05:15:46.688Z,0
2018-02-10T05:16:46.425Z,0
2018-02-10T05:17:46.666Z,0
2018-02-10T05:18:46.418Z,0
2018-02-10T05:19:46.662Z,0
2018-02-10T05:20:46.637Z,0
2018-02-10T05:21:46.380Z,0
2018-02-10T05:22:46.383Z,0
2018-02-10T05:23:46.359Z,0
2018-02-10T05:24:46.606Z,0
2018-02-10T05:25:46.353Z,0
2018-02-10T05:26:46.336Z,0
2018-02-10T05:27:46.651Z,0
2018-02-10T05:28:46.568Z,0
2018-02-10T05:29:46.562Z,0
2018-02-10T05:30:46.059Z,0
2018-02-10T05:31:46.785Z,0
2018-02-10T05:32:46.791Z,0
2018-02-10T05:33:46.530Z,0
2018-02-10T05:34:46.766Z,0
2018-02-10T05:35:46.575Z,0
2018-02-10T05:36:46.742Z,0
2018-02-10T05:37:46.232Z,0
2018-02-10T05:38:46.727Z,0
2018-02-10T05:39:46.461Z,0
2018-02-10T05:40:46.271Z,0
2018-02-10T05:41:46.719Z,0
2018-02-10T05:42:46.180Z,0
2018-02-10T05:43:46.431Z,0
2018-02-10T05:44:46.428Z,0
2018-02-10T05:45:46.401Z,0
2018-02-10T05:46:46.665Z,0
2018-02-10T05:47:46.459Z,0
2018-02-10T05:48:46.376Z,0
2018-02-10T05:49:46.401Z,0
2018-02-10T05:50:46.169Z,0
2018-02-10T05:51:46.358Z,0
2018-02-10T05:52:46.344Z,0
2018-02-10T05:53:46.085Z,0
2018-02-10T05:54:46.325Z,0
2018-02-10T05:55:46.440Z,0
2018-02-10T05:56:45.798Z,0
2018-02-10T05:57:46.288Z,0
2018-02-10T05:58:46.034Z,0
2018-02-10T05:59:46.282Z,0
2018-02-10T06:00:46.519Z,0
2018-02-10T06:01:46.278Z,0
2018-02-10T06:02:46.499Z,0
2018-02-10T06:03:46.236Z,0
2018-02-10T06:04:46.228Z,0
2018-02-10T06:05:46.222Z,0
2018-02-10T06:06:46.211Z,0
2018-02-10T06:07:48.883Z,0
2018-02-10T06:08:45.935Z,0
2018-02-10T06:09:46.432Z,0
2018-02-10T06:10:46.500Z,4
2018-02-10T06:11:45.657Z,4
2018-02-10T06:12:46.153Z,0
2018-02-10T06:13:45.890Z,0
2018-02-10T06:14:45.877Z,4
2018-02-10T06:15:46.399Z,0
2018-02-10T06:16:46.358Z,4
2018-02-10T06:17:46.101Z,4
2018-02-10T06:18:46.094Z,4
2018-02-10T06:19:46.351Z,4
2018-02-10T06:20:45.856Z,4
2018-02-10T06:21:45.820Z,8
2018-02-10T06:22:47.117Z,12
2018-02-10T06:23:45.797Z,12
2018-02-10T06:24:45.785Z,12
2018-02-10T06:25:46.281Z,16
2018-02-10T06:26:45.763Z,12
2018-02-10T06:27:46.259Z,16
2018-02-10T06:28:45.999Z,20
2018-02-10T06:29:45.740Z,24
2018-02-10T06:30:45.735Z,24
2018-02-10T06:31:45.988Z,28
2018-02-10T06:32:45.971Z,32
2018-02-10T06:33:45.950Z,36
2018-02-10T06:34:45.938Z,44
2018-02-10T06:35:46.182Z,48
2018-02-10T06:36:45.671Z,48
2018-02-10T06:37:47.977Z,56
2018-02-10T06:38:45.901Z,60
2018-02-10T06:39:45.640Z,68
2018-02-10T06:40:45.635Z,72
2018-02-10T06:41:45.623Z,80
2018-02-10T06:42:45.623Z,88
2018-02-10T06:43:46.106Z,88
2018-02-10T06:44:46.092Z,96
2018-02-10T06:45:45.602Z,100
2018-02-10T06:46:45.832Z,108
2018-02-10T06:47:46.077Z,120
2018-02-10T06:48:45.823Z,124
2018-02-10T06:49:45.805Z,132
2018-02-10T06:50:45.856Z,140
2018-02-10T06:51:45.532Z,144
2018-02-10T06:52:45.530Z,148
2018-02-10T06:53:45.264Z,152
2018-02-10T06:54:45.258Z,164
2018-02-10T06:55:45.544Z,172
2018-02-10T06:56:45.485Z,180
2018-02-10T06:57:45.736Z,196
2018-02-10T06:58:45.479Z,208
2018-02-10T06:59:45.453Z,216
2018-02-10T07:00:45.771Z,228
2018-02-10T07:01:45.780Z,240
2018-02-10T07:02:45.439Z,252
2018-02-10T07:03:45.422Z,260
2018-02-10T07:04:45.658Z,268
2018-02-10T07:05:45.400Z,280
2018-02-10T07:06:45.927Z,288
2018-02-10T07:07:45.890Z,300
2018-02-10T07:08:45.878Z,312
2018-02-10T07:09:45.614Z,324
2018-02-10T07:10:45.347Z,340
2018-02-10T07:11:45.339Z,356
2018-02-10T07:12:45.610Z,372
2018-02-10T07:13:45.322Z,396
2018-02-10T07:14:45.066Z,420
2018-02-10T07:15:45.295Z,440
2018-02-10T07:16:45.540Z,464
2018-02-10T07:17:45.281Z,484
2018-02-10T07:18:45.780Z,496
2018-02-10T07:19:45.766Z,508
2018-02-10T07:20:45.517Z,516
2018-02-10T07:21:45.503Z,520
2018-02-10T07:22:45.733Z,520
2018-02-10T07:23:47.081Z,520
2018-02-10T07:24:45.716Z,516
2018-02-10T07:25:45.454Z,516
2018-02-10T07:26:45.703Z,520
2018-02-10T07:27:45.185Z,524
2018-02-10T07:28:45.435Z,532
2018-02-10T07:29:45.419Z,544
2018-02-10T07:30:45.166Z,552
2018-02-10T07:31:45.709Z,564
2018-02-10T07:32:45.472Z,568
2018-02-10T07:33:45.379Z,580
2018-02-10T07:34:45.382Z,592
2018-02-10T07:35:45.113Z,604
2018-02-10T07:36:45.606Z,604
2018-02-10T07:37:45.353Z,600
2018-02-10T07:38:47.597Z,592
2018-02-10T07:39:45.086Z,584
2018-02-10T07:40:45.320Z,580
2018-02-10T07:41:45.322Z,580
2018-02-10T07:42:45.304Z,588
2018-02-10T07:43:45.291Z,604
2018-02-10T07:44:45.549Z,612
2018-02-10T07:45:45.021Z,620
2018-02-10T07:46:45.024Z,628
2018-02-10T07:47:45.266Z,644
2018-02-10T07:48:44.747Z,664
2018-02-10T07:49:45.247Z,684
2018-02-10T07:50:45.231Z,700
2018-02-10T07:51:45.227Z,720
2018-02-10T07:52:44.968Z,736
2018-02-10T07:53:45.463Z,756
2018-02-10T07:54:45.452Z,776
2018-02-10T07:55:45.474Z,796
2018-02-10T07:56:45.180Z,824
2018-02-10T07:57:45.432Z,852
2018-02-10T07:58:44.957Z,864
2018-02-10T07:59:44.967Z,880
2018-02-10T08:00:45.396Z,872
2018-02-10T08:01:45.170Z,856
2018-02-10T08:02:44.869Z,836
2018-02-10T08:03:45.369Z,812
2018-02-10T08:04:44.612Z,788
2018-02-10T08:05:46.032Z,760
2018-02-10T08:06:45.347Z,736
2018-02-10T08:07:45.329Z,712
2018-02-10T08:08:46.425Z,692
2018-02-10T08:09:44.565Z,676
2018-02-10T08:10:44.561Z,676
2018-02-10T08:11:44.792Z,696
2018-02-10T08:12:44.785Z,724
2018-02-10T08:13:45.022Z,764
2018-02-10T08:14:45.273Z,824
2018-02-10T08:15:45.008Z,896
2018-02-10T08:16:44.746Z,960
2018-02-10T08:17:44.990Z,1024
2018-02-10T08:18:44.982Z,1080
2018-02-10T08:19:44.982Z,1124
2018-02-10T08:20:44.960Z,1168
2018-02-10T08:21:44.947Z,1212
2018-02-10T08:22:44.946Z,1276
2018-02-10T08:23:44.940Z,1328
2018-02-10T08:24:44.682Z,1368
2018-02-10T08:25:44.942Z,1392
2018-02-10T08:26:44.909Z,1416
2018-02-10T08:27:45.139Z,1460
2018-02-10T08:28:44.637Z,1520
2018-02-10T08:29:44.374Z,1600
2018-02-10T08:30:44.941Z,1704
2018-02-10T08:31:44.875Z,1804
2018-02-10T08:32:44.600Z,1900
2018-02-10T08:33:45.150Z,1984
2018-02-10T08:34:45.080Z,2040
2018-02-10T08:35:44.850Z,2064
2018-02-10T08:36:44.312Z,2052
2018-02-10T08:38:16.905Z,2008
2018-02-10T08:38:44.290Z,1988
2018-02-10T08:39:49.988Z,1948
2018-02-10T08:40:45.022Z,1940
2018-02-10T08:41:44.766Z,1964
2018-02-10T08:42:44.752Z,2020
2018-02-10T08:43:44.748Z,2100
2018-02-10T08:44:44.485Z,2176
2018-02-10T08:45:44.299Z,2284
2018-02-10T08:46:44.725Z,2404
2018-02-10T08:47:44.964Z,2520
2018-02-10T08:48:44.957Z,2620
2018-02-10T08:49:44.695Z,2692
2018-02-10T08:50:44.692Z,2764
2018-02-10T08:51:44.420Z,2836
2018-02-10T08:52:44.415Z,2916
2018-02-10T08:53:44.658Z,3008
2018-02-10T08:54:44.647Z,3116
2018-02-10T08:55:44.436Z,3232
2018-02-10T08:56:44.375Z,3352
2018-02-10T08:57:44.635Z,3468
2018-02-10T08:58:44.625Z,3520
2018-02-10T08:59:44.621Z,3536
2018-02-10T09:00:44.342Z,3516
2018-02-10T09:01:44.333Z,3464
2018-02-10T09:02:44.579Z,3388
2018-02-10T09:03:44.818Z,3336
2018-02-10T09:04:44.811Z,3324
2018-02-10T09:05:44.556Z,3368
2018-02-10T09:06:44.556Z,3420
2018-02-10T09:07:44.313Z,3476
2018-02-10T09:08:44.516Z,3528
2018-02-10T09:09:44.769Z,3536
2018-02-10T09:10:44.767Z,3524
2018-02-10T09:11:44.520Z,3536
2018-02-10T09:12:44.751Z,3568
2018-02-10T09:13:44.486Z,3600
2018-02-10T09:14:44.722Z,3640
2018-02-10T09:15:44.465Z,3688
2018-02-10T09:16:44.469Z,3760
2018-02-10T09:17:44.697Z,3820
2018-02-10T09:18:44.444Z,3840
2018-02-10T09:19:44.428Z,3808
2018-02-10T09:20:44.689Z,3760
2018-02-10T09:21:44.420Z,3720
2018-02-10T09:22:44.157Z,3668
2018-02-10T09:23:44.401Z,3676
2018-02-10T09:24:44.398Z,3776
2018-02-10T09:25:44.198Z,3940
2018-02-10T09:26:44.123Z,4104
2018-02-10T09:27:44.112Z,4236
2018-02-10T09:28:44.351Z,4320
2018-02-10T09:29:44.351Z,4356
2018-02-10T09:30:44.347Z,4364
2018-02-10T09:31:44.347Z,4352
2018-02-10T09:32:44.329Z,4344
2018-02-10T09:33:44.569Z,4276
2018-02-10T09:34:44.567Z,4164
2018-02-10T09:35:44.291Z,4096
2018-02-10T09:36:44.290Z,4048
2018-02-10T09:37:44.049Z,3964
2018-02-10T09:38:44.524Z,3808
2018-02-10T09:39:44.536Z,3600
2018-02-10T09:40:48.864Z,3424
2018-02-10T09:41:44.496Z,3400
2018-02-10T09:42:44.240Z,3444
2018-02-10T09:43:44.480Z,3452
2018-02-10T09:44:44.216Z,3380
2018-02-10T09:45:43.967Z,3288
2018-02-10T09:46:44.211Z,3200
2018-02-10T09:47:43.944Z,3096
2018-02-10T09:48:44.198Z,2984
2018-02-10T09:49:44.175Z,2864
2018-02-10T09:50:44.417Z,2752
2018-02-10T09:51:43.915Z,2668
2018-02-10T09:52:43.896Z,2592
2018-02-10T09:53:44.143Z,2496
2018-02-10T09:54:44.135Z,2420
2018-02-10T09:55:43.630Z,2396
2018-02-10T09:56:44.117Z,2460
2018-02-10T09:57:43.861Z,2592
2018-02-10T09:58:43.847Z,2752
2018-02-10T09:59:43.842Z,2888
2018-02-10T10:00:44.083Z,2892
2018-02-10T10:01:44.181Z,2804
2018-02-10T10:02:44.319Z,2688
2018-02-10T10:03:44.312Z,2596
2018-02-10T10:04:43.790Z,2604
2018-02-10T10:05:43.843Z,2672
2018-02-10T10:06:43.539Z,2612
2018-02-10T10:07:44.282Z,2416
2018-02-10T10:08:44.021Z,2244
2018-02-10T10:09:43.774Z,2156
2018-02-10T10:10:44.253Z,2120
2018-02-10T10:11:43.731Z,2100
2018-02-10T10:12:43.727Z,2084
2018-02-10T10:13:43.979Z,2072
2018-02-10T10:14:44.207Z,2116
2018-02-10T10:15:43.951Z,2188
2018-02-10T10:16:43.695Z,2300
2018-02-10T10:17:44.198Z,2452
2018-02-10T10:18:44.189Z,2672
2018-02-10T10:19:43.917Z,2920
2018-02-10T10:20:43.705Z,3196
2018-02-10T10:21:43.898Z,3440
2018-02-10T10:22:43.639Z,3812
2018-02-10T10:23:43.652Z,4324
2018-02-10T10:24:44.131Z,4676
2018-02-10T10:54:20.691Z,5828
2018-02-10T10:55:21.409Z,5864
2018-02-10T10:56:21.152Z,5876
2018-02-10T10:57:21.213Z,5820
2018-02-10T10:58:20.879Z,5736
2018-02-10T10:59:20.867Z,5520
2018-02-10T11:00:21.160Z,5352
2018-02-10T11:01:20.836Z,5216
2018-02-10T11:02:21.089Z,5084
2018-02-10T11:03:20.828Z,5064
2018-02-10T11:04:21.155Z,5092
2018-02-10T11:05:21.051Z,5004
2018-02-10T11:06:20.797Z,4916
2018-02-10T11:07:21.039Z,4808
2018-02-10T11:08:21.029Z,4660
2018-02-10T11:09:20.771Z,4464
2018-02-10T11:10:21.264Z,4364
2018-02-10T11:11:20.503Z,4444
2018-02-10T11:12:20.762Z,4668
2018-02-10T11:13:20.735Z,4832
2018-02-10T11:14:20.729Z,4896
2018-02-10T11:15:21.068Z,4820
2018-02-10T11:16:20.721Z,4668
2018-02-10T11:17:20.589Z,4492
2018-02-10T11:18:20.707Z,4280
2018-02-10T11:19:20.713Z,4080
2018-02-10T11:20:21.393Z,3908
2018-02-10T11:21:20.430Z,3792
2018-02-10T11:22:20.680Z,3664
2018-02-10T11:23:20.661Z,3536
2018-02-10T11:24:25.514Z,3380
2018-02-10T11:25:21.749Z,3264
2018-02-10T11:26:20.404Z,3152
2018-02-10T11:27:20.433Z,3088
2018-02-10T11:28:20.898Z,3068
2018-02-10T11:29:20.383Z,3112
2018-02-10T11:30:20.860Z,3184
2018-02-10T11:31:20.349Z,3240
2018-02-10T11:32:20.092Z,3228
2018-02-10T11:33:20.337Z,3156
2018-02-10T11:34:20.351Z,3104
2018-02-10T11:35:20.646Z,3052
2018-02-10T11:36:20.318Z,3004
2018-02-10T11:37:20.568Z,2988
2018-02-10T11:38:20.050Z,3024
2018-02-10T11:39:20.097Z,3064
2018-02-10T11:40:21.315Z,3080
2018-02-10T11:41:20.529Z,3060
2018-02-10T11:42:20.541Z,3036
2018-02-10T11:43:20.522Z,3008
2018-02-10T11:44:20.508Z,2972
2018-02-10T11:45:21.044Z,2944
2018-02-10T11:46:20.739Z,2956
2018-02-10T11:47:20.758Z,2996
2018-02-10T11:48:20.483Z,3048
2018-02-10T11:49:20.502Z,3104
2018-02-10T11:50:21.497Z,3128
2018-02-10T11:51:20.212Z,3116
2018-02-10T11:52:20.207Z,3028
2018-02-10T11:53:20.692Z,2928
2018-02-10T11:54:20.727Z,2812
2018-02-10T11:55:20.666Z,2696
2018-02-10T11:56:20.170Z,2604
2018-02-10T11:57:20.413Z,2528
2018-02-10T11:58:20.150Z,2456
2018-02-10T11:59:20.405Z,2364
2018-02-10T12:00:21.268Z,2284
2018-02-10T12:01:20.436Z,2212
2018-02-10T12:02:20.617Z,2136
2018-02-10T12:03:19.865Z,2060
2018-02-10T12:04:20.366Z,1976
2018-02-10T12:05:20.905Z,1904
2018-02-10T12:06:20.350Z,1852
2018-02-10T12:07:20.332Z,1816
2018-02-10T12:08:20.084Z,1800
2018-02-10T12:09:20.447Z,1796
2018-02-10T12:10:20.832Z,1812
2018-02-10T12:11:20.561Z,1836
2018-02-10T12:12:20.552Z,1868
2018-02-10T12:13:19.785Z,1916
2018-02-10T12:14:20.543Z,1940
2018-02-10T12:15:21.262Z,1952
2018-02-10T12:16:20.515Z,1956
2018-02-10T12:17:20.266Z,1944
2018-02-10T12:18:20.258Z,1940
2018-02-10T12:19:20.506Z,1948
2018-02-10T12:20:20.430Z,1964
2018-02-10T12:21:20.484Z,1996
2018-02-10T12:22:20.218Z,2052
2018-02-10T12:23:19.973Z,2140
2018-02-10T12:24:20.922Z,2224
2018-02-10T12:25:21.546Z,2316
2018-02-10T12:26:20.214Z,2420
2018-02-10T12:27:20.187Z,2516
2018-02-10T12:28:19.920Z,2656
2018-02-10T12:29:19.906Z,2792
2018-02-10T12:30:20.792Z,2940
2018-02-10T12:31:20.162Z,3064
2018-02-10T12:32:20.404Z,3112
2018-02-10T12:33:20.396Z,3124
2018-02-10T12:34:20.163Z,3104
2018-02-10T12:35:20.816Z,3052
2018-02-10T12:36:20.107Z,3020
2018-02-10T12:37:20.864Z,3040
2018-02-10T12:38:20.627Z,3100
2018-02-10T12:39:21.752Z,3208
2018-02-10T12:40:21.019Z,3348
2018-02-10T12:41:20.621Z,3512
2018-02-10T12:42:20.067Z,3680
2018-02-10T12:43:19.829Z,3864
2018-02-10T12:44:20.299Z,4068
2018-02-10T12:45:20.643Z,4244
2018-02-10T12:46:20.022Z,4412
2018-02-10T12:47:20.022Z,4552
2018-02-10T12:48:19.774Z,4660
2018-02-10T12:49:20.277Z,4764
2018-02-10T12:50:20.127Z,4788
2018-02-10T12:51:19.988Z,4756
2018-02-10T12:52:19.535Z,4732
2018-02-10T12:53:19.980Z,4692
2018-02-10T12:54:20.023Z,4608
2018-02-10T12:55:20.943Z,4512
2018-02-10T12:56:19.705Z,4472
2018-02-10T12:57:19.948Z,4480
2018-02-10T12:58:19.932Z,4508
2018-02-10T12:59:19.922Z,4488
2018-02-10T13:00:20.945Z,4420
2018-02-10T13:01:19.421Z,4352
2018-02-10T13:02:19.911Z,4300
2018-02-10T13:03:19.660Z,4200
2018-02-10T13:04:19.894Z,4052
2018-02-10T13:05:20.511Z,3876
2018-02-10T13:06:20.197Z,3712
2018-02-10T13:07:19.612Z,3612
2018-02-10T13:08:19.857Z,3552
2018-02-10T13:09:19.842Z,3484
2018-02-10T13:10:20.775Z,3476
2018-02-10T13:11:19.601Z,3444
2018-02-10T13:12:19.840Z,3384
2018-02-10T13:13:19.826Z,3348
2018-02-10T13:14:19.819Z,3364
2018-02-10T13:15:21.648Z,3408
2018-02-10T13:16:19.791Z,3468
2018-02-10T13:17:19.587Z,3516
2018-02-10T13:18:19.528Z,3552
2018-02-10T13:19:20.039Z,3528
2018-02-10T13:20:20.297Z,3484
2018-02-10T13:21:19.762Z,3456
2018-02-10T13:22:19.762Z,3468
2018-02-10T13:23:19.513Z,3468
2018-02-10T13:24:19.725Z,3424
2018-02-10T13:25:20.609Z,3372
2018-02-10T13:26:19.205Z,3336
2018-02-10T13:27:20.066Z,3288
2018-02-10T13:28:19.951Z,3216
2018-02-10T13:29:19.195Z,3140
2018-02-10T13:30:20.217Z,3064
2018-02-10T13:31:19.935Z,3000
2018-02-10T13:32:19.672Z,2960
2018-02-10T13:33:19.408Z,2912
2018-02-10T13:34:19.652Z,2836
2018-02-10T13:35:20.010Z,2704
2018-02-10T13:36:19.886Z,2544
2018-02-10T13:37:19.375Z,2376
2018-02-10T13:38:19.863Z,2220
2018-02-10T13:39:19.368Z,2088
2018-02-10T13:40:20.333Z,1984
2018-02-10T13:41:19.846Z,1916
2018-02-10T13:42:19.586Z,1880
2018-02-10T13:43:19.608Z,1868
2018-02-10T13:44:19.576Z,1892
2018-02-10T13:45:20.743Z,1948
2018-02-10T13:46:19.315Z,2008
2018-02-10T13:47:19.814Z,2040
2018-02-10T13:48:19.538Z,2040
2018-02-10T13:49:19.532Z,2032
2018-02-10T13:50:20.456Z,2020
2018-02-10T13:51:19.763Z,2020
2018-02-10T13:52:19.498Z,1984
2018-02-10T13:53:19.258Z,1912
2018-02-10T13:54:19.491Z,1824
2018-02-10T13:55:23.266Z,1760
2018-02-10T13:56:19.522Z,1712
2018-02-10T13:57:19.459Z,1680
2018-02-10T13:58:19.214Z,1668
2018-02-10T13:59:19.451Z,1656
2018-02-10T14:00:20.113Z,1620
2018-02-10T14:01:19.474Z,1564
2018-02-10T14:02:19.170Z,1500
2018-02-10T14:03:19.515Z,1444
2018-02-10T14:04:19.473Z,1408
2018-02-10T14:05:20.431Z,1376
2018-02-10T14:06:19.141Z,1344
2018-02-10T14:07:19.662Z,1312
2018-02-10T14:08:19.130Z,1268
2018-02-10T14:09:19.367Z,1224
2018-02-10T14:10:20.564Z,1192
2018-02-10T14:11:19.176Z,1180
2018-02-10T14:12:19.402Z,1172
2018-02-10T14:13:19.596Z,1184
2018-02-10T14:14:19.648Z,1212
2018-02-10T14:15:20.172Z,1252
2018-02-10T14:16:19.336Z,1316
2018-02-10T14:17:19.302Z,1408
2018-02-10T14:18:19.577Z,1484
2018-02-10T14:19:18.788Z,1508
2018-02-10T14:20:20.105Z,1464
2018-02-10T14:21:19.305Z,1380
2018-02-10T14:22:19.521Z,1280
2018-02-10T14:23:19.245Z,1196
2018-02-10T14:24:19.241Z,1132
2018-02-10T14:25:20.402Z,1092
2018-02-10T14:26:20.584Z,1064
2018-02-10T14:27:18.958Z,1048
2018-02-10T14:28:19.466Z,1036
2018-02-10T14:29:18.692Z,1028
2018-02-10T14:30:19.929Z,1020